sensor_id;sensor_type;location;lat;lon;timestamp;pressure;altitude;pressure_sealevel;temperature;humidity
57248;BME280;55809;46.618;10.764;2022-11-14T10:43:34;93365.09;;;7.05;86.28
57248;BME280;55809;46.618;10.764;2022-11-14T10:46:11;93409.22;;;7.38;86.38
57248;BME280;55809;46.618;10.764;2022-11-14T10:48:43;93445.59;;;7.66;86.00
57248;BME280;55809;46.618;10.764;2022-11-14T10:51:17;93432.72;;;7.48;86.41
57248;BME280;55809;46.618;10.764;2022-11-14T10:53:52;93466.06;;;7.78;86.90
57248;BME280;55809;46.618;10.764;2022-11-14T10:56:21;93456.28;;;7.62;86.55
57248;BME280;55809;46.618;10.764;2022-11-14T10:58:50;93418.28;;;7.26;86.01
57248;BME280;55809;46.618;10.764;2022-11-14T11:01:36;93448.56;;;7.57;85.12
57248;BME280;55809;46.618;10.764;2022-11-14T11:04:18;93428.41;;;7.40;84.80
57248;BME280;55809;46.618;10.764;2022-11-14T11:06:51;93425.59;;;7.29;85.71
57248;BME280;55809;46.618;10.764;2022-11-14T11:09:23;93444.44;;;7.33;86.20
57248;BME280;55809;46.618;10.764;2022-11-14T11:12:14;93439.75;;;7.26;85.81
57248;BME280;55809;46.618;10.764;2022-11-14T11:17:55;93463.66;;;7.35;85.84
57248;BME280;55809;46.618;10.764;2022-11-14T11:20:30;93405.66;;;7.00;86.64
57248;BME280;55809;46.618;10.764;2022-11-14T11:23:05;93465.22;;;7.40;86.94
57248;BME280;55809;46.618;10.764;2022-11-14T11:25:38;93469.56;;;7.48;85.45
57248;BME280;55809;46.618;10.764;2022-11-14T11:28:11;93451.06;;;7.43;86.38
57248;BME280;55809;46.618;10.764;2022-11-14T11:30:40;93439.91;;;7.37;85.93
57248;BME280;55809;46.618;10.764;2022-11-14T11:33:25;93466.44;;;7.76;84.77
57248;BME280;55809;46.618;10.764;2022-11-14T11:35:56;93411.63;;;7.47;85.30
57248;BME280;55809;46.618;10.764;2022-11-14T11:38:29;93450.34;;;7.80;85.09
57248;BME280;55809;46.618;10.764;2022-11-14T11:41:04;93436.81;;;7.69;85.40
57248;BME280;55809;46.618;10.764;2022-11-14T11:43:39;93428.41;;;7.74;84.93
57248;BME280;55809;46.618;10.764;2022-11-14T11:46:14;93461.31;;;7.97;84.16
57248;BME280;55809;46.618;10.764;2022-11-14T11:48:45;93436.88;;;7.76;84.85
57248;BME280;55809;46.618;10.764;2022-11-14T11:51:18;93407.94;;;7.62;84.85
57248;BME280;55809;46.618;10.764;2022-11-14T11:53:58;93434.41;;;7.97;84.53
57248;BME280;55809;46.618;10.764;2022-11-14T11:56:30;93418.09;;;7.80;84.72
57248;BME280;55809;46.618;10.764;2022-11-14T11:59:04;93411.56;;;7.77;84.83
57248;BME280;55809;46.618;10.764;2022-11-14T12:01:36;93430.09;;;7.89;84.97
57248;BME280;55809;46.618;10.764;2022-11-14T12:04:06;93413.09;;;7.78;84.86
57248;BME280;55809;46.618;10.764;2022-11-14T12:06:38;93395.31;;;7.66;85.49
57248;BME280;55809;46.618;10.764;2022-11-14T12:09:14;93404.25;;;7.74;85.61
57248;BME280;55809;46.618;10.764;2022-11-14T12:11:48;93440.09;;;7.89;86.21
57248;BME280;55809;46.618;10.764;2022-11-14T12:14:39;93445.81;;;7.84;86.65
57248;BME280;55809;46.618;10.764;2022-11-14T12:17:27;93397.84;;;7.52;87.03
57248;BME280;55809;46.618;10.764;2022-11-14T12:20:12;93422.03;;;7.89;86.39
57248;BME280;55809;46.618;10.764;2022-11-14T12:23:00;93433.66;;;7.97;86.19
57248;BME280;55809;46.618;10.764;2022-11-14T12:25:44;93428.66;;;7.99;86.25
57248;BME280;55809;46.618;10.764;2022-11-14T12:28:27;93404.44;;;7.95;85.88
57248;BME280;55809;46.618;10.764;2022-11-14T12:31:04;93374.75;;;7.81;85.66
57248;BME280;55809;46.618;10.764;2022-11-14T12:33:39;93386.44;;;7.99;85.36
57248;BME280;55809;46.618;10.764;2022-11-14T12:36:12;93423.41;;;8.10;85.67
57248;BME280;55809;46.618;10.764;2022-11-14T12:38:42;93420.31;;;8.08;85.51
57248;BME280;55809;46.618;10.764;2022-11-14T12:41:11;93378.25;;;7.85;85.18
57248;BME280;55809;46.618;10.764;2022-11-14T12:43:48;93375.03;;;7.72;85.38
57248;BME280;55809;46.618;10.764;2022-11-14T12:46:16;93366.63;;;7.74;85.21
57248;BME280;55809;46.618;10.764;2022-11-14T12:48:44;93399.47;;;7.97;85.76
57248;BME280;55809;46.618;10.764;2022-11-14T12:51:50;93391.41;;;7.97;86.22
57248;BME280;55809;46.618;10.764;2022-11-14T12:54:42;93424.31;;;8.28;85.46
57248;BME280;55809;46.618;10.764;2022-11-14T12:57:16;93401.19;;;8.16;85.05
57248;BME280;55809;46.618;10.764;2022-11-14T13:00:09;93418.69;;;8.40;84.79
57248;BME280;55809;46.618;10.764;2022-11-14T13:05:56;93384.66;;;8.18;84.29
57248;BME280;55809;46.618;10.764;2022-11-14T13:08:52;93392.03;;;8.25;84.46
57248;BME280;55809;46.618;10.764;2022-11-14T13:11:39;93382.00;;;8.21;84.67
57248;BME280;55809;46.618;10.764;2022-11-14T13:14:24;93361.50;;;8.03;84.98
57248;BME280;55809;46.618;10.764;2022-11-14T13:17:22;93372.47;;;8.31;84.05
57248;BME280;55809;46.618;10.764;2022-11-14T13:20:27;93407.72;;;8.60;83.90
57248;BME280;55809;46.618;10.764;2022-11-14T13:26:51;93401.22;;;8.68;83.98
57248;BME280;55809;46.618;10.764;2022-11-14T13:29:50;93401.22;;;8.72;83.75
57248;BME280;55809;46.618;10.764;2022-11-14T13:32:51;93393.22;;;8.79;83.57
57248;BME280;55809;46.618;10.764;2022-11-14T13:38:48;93366.66;;;8.74;82.85
57248;BME280;55809;46.618;10.764;2022-11-14T13:41:36;93391.78;;;8.92;82.53
57248;BME280;55809;46.618;10.764;2022-11-14T13:44:47;93383.63;;;8.81;82.46
57248;BME280;55809;46.618;10.764;2022-11-14T13:47:37;93388.22;;;8.81;82.18
57248;BME280;55809;46.618;10.764;2022-11-14T13:50:10;93398.63;;;8.82;82.45
57248;BME280;55809;46.618;10.764;2022-11-14T13:52:41;93388.97;;;8.74;82.13
57248;BME280;55809;46.618;10.764;2022-11-14T13:55:18;93400.56;;;8.85;82.48
57248;BME280;55809;46.618;10.764;2022-11-14T13:57:57;93333.72;;;8.36;82.27
57248;BME280;55809;46.618;10.764;2022-11-14T14:00:47;93371.13;;;8.52;82.54
57248;BME280;55809;46.618;10.764;2022-11-14T14:03:28;93395.47;;;8.69;83.17
57248;BME280;55809;46.618;10.764;2022-11-14T14:06:11;93336.28;;;8.18;83.26
57248;BME280;55809;46.618;10.764;2022-11-14T14:08:58;93350.88;;;8.17;83.31
57248;BME280;55809;46.618;10.764;2022-11-14T14:11:42;93386.72;;;8.35;83.74
57248;BME280;55809;46.618;10.764;2022-11-14T14:14:25;93384.88;;;8.39;84.41
57248;BME280;55809;46.618;10.764;2022-11-14T14:17:03;93347.69;;;8.04;84.86
57248;BME280;55809;46.618;10.764;2022-11-14T14:19:44;93349.59;;;8.00;84.65
57248;BME280;55809;46.618;10.764;2022-11-14T14:22:21;93390.97;;;8.36;84.70
